Time;durP1;ratioP1;P1;durP2;ratioP2;P2;SDS_P1;SDS_P2;PMS_P1;PMS_P2;Temp;Humidity;BMP_temperature;BMP_pressure;BME280_temperature;BME280_humidity;BME280_pressure;Samples;Min_cycle;Max_cycle;Signal;HPM_P1;HPM_P2
2023/09/18 00:00:11;;;;;;;10.70;6.50;;;;;;;;;;5098387;28;20964;-63
2023/09/18 00:02:40;;;;;;;10.95;6.13;;;;;;;;;;5091788;28;20406;-63
2023/09/18 00:05:07;;;;;;;14.65;6.75;;;;;;;;;;5097765;28;20803;-63
2023/09/18 00:07:34;;;;;;;11.63;6.27;;;;;;;;;;5091359;28;20409;-63
2023/09/18 00:10:01;;;;;;;8.13;6.00;;;;;;;;;;5097147;28;20482;-63
2023/09/18 00:12:28;;;;;;;9.05;6.45;;;;;;;;;;5092161;28;20410;-63
2023/09/18 00:14:55;;;;;;;11.35;6.85;;;;;;;;;;5100113;28;20410;-64
2023/09/18 00:17:23;;;;;;;10.32;6.43;;;;;;;;;;5095522;28;20789;-63
2023/09/18 00:19:53;;;;;;;11.45;6.60;;;;;;;;;;5095366;28;20922;-63
2023/09/18 00:22:20;;;;;;;10.05;6.18;;;;;;;;;;5095176;28;20782;-63
2023/09/18 00:24:47;;;;;;;10.05;6.78;;;;;;;;;;5103678;28;20410;-63
2023/09/18 00:27:15;;;;;;;9.15;6.13;;;;;;;;;;5107051;28;20463;-63
2023/09/18 00:29:42;;;;;;;11.77;6.00;;;;;;;;;;5099493;28;20409;-63
2023/09/18 00:32:09;;;;;;;9.73;6.00;;;;;;;;;;5093433;28;20478;-63
2023/09/18 00:34:36;;;;;;;9.48;6.40;;;;;;;;;;5095180;28;20817;-63
2023/09/18 00:37:05;;;;;;;10.40;6.47;;;;;;;;;;5092516;28;20417;-63
2023/09/18 00:39:32;;;;;;;10.00;6.32;;;;;;;;;;5095493;28;20478;-63
2023/09/18 00:41:59;;;;;;;11.10;6.27;;;;;;;;;;5094627;28;20406;-63
2023/09/18 00:44:26;;;;;;;13.00;6.53;;;;;;;;;;5095797;28;20939;-63
2023/09/18 00:46:55;;;;;;;9.52;6.68;;;;;;;;;;5094251;28;20416;-63
2023/09/18 00:49:23;;;;;;;11.07;6.25;;;;;;;;;;5095896;28;20508;-63
2023/09/18 00:51:51;;;;;;;9.63;6.38;;;;;;;;;;5094287;28;20410;-63
2023/09/18 00:54:20;;;;;;;10.88;7.00;;;;;;;;;;5097468;28;20504;-63
2023/09/18 00:56:48;;;;;;;9.93;6.72;;;;;;;;;;5111591;28;20434;-63
2023/09/18 00:59:15;;;;;;;11.63;6.93;;;;;;;;;;5102228;28;20471;-63
2023/09/18 01:01:43;;;;;;;11.10;7.00;;;;;;;;;;5093515;28;20490;-63
2023/09/18 01:04:13;;;;;;;9.90;6.80;;;;;;;;;;5099412;28;20405;-63
2023/09/18 01:06:40;;;;;;;12.43;6.97;;;;;;;;;;5097130;28;20422;-63
2023/09/18 01:09:12;;;;;;;9.43;6.93;;;;;;;;;;5101572;28;20402;-63
2023/09/18 01:11:44;;;;;;;10.00;6.93;;;;;;;;;;5100136;28;20412;-63
2023/09/18 01:14:14;;;;;;;10.52;6.68;;;;;;;;;;5096893;28;20503;-63
2023/09/18 01:16:46;;;;;;;10.55;6.40;;;;;;;;;;5099659;28;20409;-63
2023/09/18 01:19:13;;;;;;;11.55;6.47;;;;;;;;;;5096669;28;20765;-63
2023/09/18 01:21:40;;;;;;;10.25;6.53;;;;;;;;;;5099319;28;20830;-63
2023/09/18 01:24:08;;;;;;;11.07;6.43;;;;;;;;;;5095883;28;20459;-63
2023/09/18 01:26:35;;;;;;;9.98;6.20;;;;;;;;;;5119150;27;20403;-63
2023/09/18 01:29:03;;;;;;;8.88;6.25;;;;;;;;;;5101752;27;20906;-63
2023/09/18 01:31:30;;;;;;;8.65;6.43;;;;;;;;;;5099270;28;20444;-63
2023/09/18 01:33:58;;;;;;;9.68;6.22;;;;;;;;;;5095176;28;20414;-63
2023/09/18 01:36:26;;;;;;;8.57;6.20;;;;;;;;;;5101801;28;20944;-63
2023/09/18 01:38:53;;;;;;;11.27;6.00;;;;;;;;;;5094764;28;20432;-63
2023/09/18 01:41:22;;;;;;;9.63;6.03;;;;;;;;;;5101515;28;20407;-63
2023/09/18 01:43:49;;;;;;;10.60;6.00;;;;;;;;;;5094434;28;20429;-63
2023/09/18 01:46:16;;;;;;;11.27;6.22;;;;;;;;;;5101239;28;20459;-63
2023/09/18 01:48:47;;;;;;;8.45;6.00;;;;;;;;;;5093989;28;20458;-63
2023/09/18 01:51:15;;;;;;;12.30;6.20;;;;;;;;;;5100629;28;20493;-63
2023/09/18 01:53:42;;;;;;;7.40;5.63;;;;;;;;;;5093453;28;20405;-63
2023/09/18 01:56:09;;;;;;;10.32;5.85;;;;;;;;;;5112683;27;20845;-63
2023/09/18 01:58:38;;;;;;;12.13;5.53;;;;;;;;;;5097604;28;20433;-63
2023/09/18 02:01:05;;;;;;;11.73;5.40;;;;;;;;;;5099378;28;20409;-63
2023/09/18 02:03:32;;;;;;;11.77;5.50;;;;;;;;;;5097063;28;20469;-63
2023/09/18 02:05:59;;;;;;;12.07;5.43;;;;;;;;;;5097368;28;20455;-63
2023/09/18 02:08:26;;;;;;;11.43;5.63;;;;;;;;;;5100369;28;20812;-63
2023/09/18 02:10:53;;;;;;;10.38;5.53;;;;;;;;;;5100908;28;20464;-63
2023/09/18 02:13:20;;;;;;;8.80;5.32;;;;;;;;;;5096496;28;20879;-63
2023/09/18 02:15:48;;;;;;;11.13;5.60;;;;;;;;;;5096673;28;20405;-63
2023/09/18 02:18:16;;;;;;;10.23;5.15;;;;;;;;;;5095597;28;20410;-65
2023/09/18 02:20:44;;;;;;;7.82;5.20;;;;;;;;;;5096986;28;20406;-63
2023/09/18 02:23:11;;;;;;;8.35;5.15;;;;;;;;;;5098037;28;20923;-63
2023/09/18 02:25:40;;;;;;;10.33;5.47;;;;;;;;;;5106009;27;20550;-64
2023/09/18 02:28:07;;;;;;;8.87;5.00;;;;;;;;;;5108624;27;20415;-63
2023/09/18 02:30:34;;;;;;;11.85;5.00;;;;;;;;;;5097144;28;20451;-63
2023/09/18 02:33:03;;;;;;;9.80;5.18;;;;;;;;;;5099151;28;20414;-63
2023/09/18 02:35:30;;;;;;;9.40;4.72;;;;;;;;;;5098489;28;20514;-63
2023/09/18 02:37:57;;;;;;;11.95;5.30;;;;;;;;;;5095901;28;20410;-63
2023/09/18 02:40:24;;;;;;;10.80;5.00;;;;;;;;;;5097025;28;20420;-63
2023/09/18 02:42:51;;;;;;;7.75;4.53;;;;;;;;;;5095541;28;20410;-63
2023/09/18 02:45:18;;;;;;;8.63;5.03;;;;;;;;;;5096172;28;20453;-63
2023/09/18 02:47:45;;;;;;;7.85;4.53;;;;;;;;;;5098623;28;20417;-63
2023/09/18 02:50:13;;;;;;;8.90;4.90;;;;;;;;;;5095768;28;20406;-63
2023/09/18 02:52:40;;;;;;;9.48;4.70;;;;;;;;;;5098215;28;20408;-63
2023/09/18 02:55:09;;;;;;;9.02;4.30;;;;;;;;;;5106337;27;20962;-63
2023/09/18 02:57:37;;;;;;;9.80;4.75;;;;;;;;;;5113187;27;20475;-63
2023/09/18 03:00:04;;;;;;;8.73;4.10;;;;;;;;;;5095924;28;20425;-63
2023/09/18 03:02:31;;;;;;;6.47;4.00;;;;;;;;;;5100894;28;20744;-63
2023/09/18 03:04:58;;;;;;;7.70;4.32;;;;;;;;;;5094027;28;20414;-63
2023/09/18 03:07:29;;;;;;;9.75;4.22;;;;;;;;;;5096252;28;20409;-63
2023/09/18 03:09:56;;;;;;;9.40;4.30;;;;;;;;;;5106187;27;20883;-63
2023/09/18 03:12:23;;;;;;;8.93;4.00;;;;;;;;;;5107862;27;20550;-63
2023/09/18 03:14:50;;;;;;;6.85;4.00;;;;;;;;;;5093156;28;20492;-63
2023/09/18 03:17:17;;;;;;;5.32;3.72;;;;;;;;;;5099446;28;20812;-63
2023/09/18 03:19:44;;;;;;;8.52;4.22;;;;;;;;;;5092819;28;20422;-63
2023/09/18 03:22:11;;;;;;;7.07;3.73;;;;;;;;;;5098706;28;20479;-63
2023/09/18 03:24:39;;;;;;;9.70;3.70;;;;;;;;;;5099440;27;20402;-63
2023/09/18 03:27:06;;;;;;;6.65;3.63;;;;;;;;;;5113578;27;20469;-63
2023/09/18 03:29:33;;;;;;;6.95;4.00;;;;;;;;;;5098096;27;20410;-63
2023/09/18 03:32:00;;;;;;;9.50;4.03;;;;;;;;;;5096878;28;20910;-63
2023/09/18 03:34:27;;;;;;;6.72;3.63;;;;;;;;;;5093444;28;20421;-63
2023/09/18 03:36:54;;;;;;;8.07;3.80;;;;;;;;;;5100781;28;20947;-63
2023/09/18 03:39:21;;;;;;;8.38;3.90;;;;;;;;;;5092861;28;20430;-63
2023/09/18 03:41:50;;;;;;;9.93;4.18;;;;;;;;;;5099598;28;20455;-63
2023/09/18 03:44:17;;;;;;;7.53;3.60;;;;;;;;;;5094252;28;20409;-63
2023/09/18 03:46:44;;;;;;;5.65;3.50;;;;;;;;;;5097068;28;20414;-63
2023/09/18 03:49:11;;;;;;;9.60;3.97;;;;;;;;;;5093694;28;20410;-63
2023/09/18 03:51:38;;;;;;;9.90;4.30;;;;;;;;;;5097253;28;20410;-63
2023/09/18 03:54:05;;;;;;;8.20;4.18;;;;;;;;;;5092033;28;20941;-63
2023/09/18 03:56:32;;;;;;;9.17;3.80;;;;;;;;;;5112832;27;20818;-63
2023/09/18 03:59:01;;;;;;;10.55;4.00;;;;;;;;;;5097176;28;20425;-63
2023/09/18 04:01:28;;;;;;;7.38;4.18;;;;;;;;;;5097546;28;20407;-63
2023/09/18 04:03:55;;;;;;;9.38;4.00;;;;;;;;;;5090736;28;20432;-63
2023/09/18 04:06:24;;;;;;;8.32;3.95;;;;;;;;;;5097765;28;20471;-63
2023/09/18 04:08:51;;;;;;;10.50;4.05;;;;;;;;;;5094614;28;20422;-64
2023/09/18 04:11:18;;;;;;;9.10;3.92;;;;;;;;;;5096333;28;20960;-64
2023/09/18 04:13:45;;;;;;;8.40;3.88;;;;;;;;;;5094406;28;20495;-63
2023/09/18 04:16:17;;;;;;;7.25;3.90;;;;;;;;;;5095921;28;20828;-63
2023/09/18 04:18:44;;;;;;;8.85;4.45;;;;;;;;;;5094413;28;20493;-63
2023/09/18 04:21:11;;;;;;;9.70;4.10;;;;;;;;;;5095514;28;20818;-63
2023/09/18 04:23:38;;;;;;;9.13;3.88;;;;;;;;;;5101354;28;20396;-63
2023/09/18 04:26:05;;;;;;;8.80;4.00;;;;;;;;;;5104806;28;20432;-63
2023/09/18 04:28:32;;;;;;;9.27;4.20;;;;;;;;;;5102277;28;20400;-63
2023/09/18 04:30:59;;;;;;;9.27;4.32;;;;;;;;;;5093928;28;20409;-63
2023/09/18 04:33:28;;;;;;;8.52;4.20;;;;;;;;;;5097393;28;20540;-63
2023/09/18 04:35:55;;;;;;;11.27;4.53;;;;;;;;;;5094045;28;20424;-63
2023/09/18 04:38:23;;;;;;;10.18;4.60;;;;;;;;;;5099425;28;20495;-63
2023/09/18 04:40:50;;;;;;;9.30;4.60;;;;;;;;;;5097158;28;20478;-63
2023/09/18 04:43:17;;;;;;;7.68;4.00;;;;;;;;;;5098771;28;20449;-63
2023/09/18 04:45:44;;;;;;;10.93;4.50;;;;;;;;;;5098733;28;20409;-62
2023/09/18 04:48:11;;;;;;;13.23;4.50;;;;;;;;;;5098658;28;20463;-63
2023/09/18 04:50:39;;;;;;;9.47;4.60;;;;;;;;;;5097989;28;20772;-63
2023/09/18 04:53:06;;;;;;;11.05;4.43;;;;;;;;;;5097530;28;20914;-63
2023/09/18 04:55:33;;;;;;;9.07;4.22;;;;;;;;;;5104747;27;20413;-63
2023/09/18 04:58:00;;;;;;;11.50;4.55;;;;;;;;;;5104281;28;20402;-63
2023/09/18 05:00:29;;;;;;;12.05;4.55;;;;;;;;;;5100243;28;20495;-63
2023/09/18 05:02:56;;;;;;;12.93;4.80;;;;;;;;;;5100842;28;20885;-63
2023/09/18 05:05:23;;;;;;;13.53;4.70;;;;;;;;;;5097234;28;20489;-63
2023/09/18 05:07:51;;;;;;;7.97;4.55;;;;;;;;;;5100141;28;20413;-63
2023/09/18 05:10:18;;;;;;;13.77;4.78;;;;;;;;;;5096696;28;20467;-63
2023/09/18 05:12:46;;;;;;;12.80;4.93;;;;;;;;;;5101150;28;20822;-63
2023/09/18 05:15:13;;;;;;;10.80;4.60;;;;;;;;;;5099789;28;20463;-63
2023/09/18 05:17:42;;;;;;;10.48;4.43;;;;;;;;;;5099423;28;20487;-64
2023/09/18 05:20:11;;;;;;;10.23;4.40;;;;;;;;;;5095364;28;20471;-63
2023/09/18 05:22:38;;;;;;;9.48;4.53;;;;;;;;;;5102345;28;20446;-63
2023/09/18 05:25:07;;;;;;;13.98;4.85;;;;;;;;;;5106181;27;20408;-63
2023/09/18 05:27:34;;;;;;;10.65;4.40;;;;;;;;;;5108544;27;20398;-63
2023/09/18 05:30:01;;;;;;;11.73;4.63;;;;;;;;;;5096619;28;20410;-63
2023/09/18 05:32:28;;;;;;;11.40;4.67;;;;;;;;;;5104309;28;20443;-63
2023/09/18 05:34:55;;;;;;;10.75;4.50;;;;;;;;;;5097322;28;20457;-63
2023/09/18 05:37:22;;;;;;;10.57;4.30;;;;;;;;;;5099272;28;20433;-63
2023/09/18 05:39:49;;;;;;;10.83;4.63;;;;;;;;;;5097038;28;20479;-63
2023/09/18 05:42:17;;;;;;;14.10;4.60;;;;;;;;;;5098076;28;20761;-63
2023/09/18 05:44:44;;;;;;;14.57;4.45;;;;;;;;;;5096720;28;20484;-63
2023/09/18 05:47:12;;;;;;;11.25;4.53;;;;;;;;;;5096932;28;20413;-63
2023/09/18 05:49:39;;;;;;;11.68;4.57;;;;;;;;;;5096712;28;20408;-63
2023/09/18 05:52:06;;;;;;;11.77;4.68;;;;;;;;;;5096684;28;20410;-63
2023/09/18 05:54:33;;;;;;;12.43;4.57;;;;;;;;;;5099927;27;20407;-63
2023/09/18 05:57:02;;;;;;;7.50;3.75;;;;;;;;;;5104833;27;20495;-63
2023/09/18 05:59:31;;;;;;;11.27;4.13;;;;;;;;;;5103937;27;20413;-63
2023/09/18 06:01:58;;;;;;;8.27;3.40;;;;;;;;;;5095886;28;20799;-63
2023/09/18 06:04:25;;;;;;;10.17;3.80;;;;;;;;;;5098651;28;20489;-63
2023/09/18 06:06:52;;;;;;;9.98;4.22;;;;;;;;;;5100563;28;20895;-63
2023/09/18 06:09:19;;;;;;;11.23;3.70;;;;;;;;;;5098437;28;20424;-63
2023/09/18 06:11:46;;;;;;;9.60;3.97;;;;;;;;;;5100574;28;20541;-63
2023/09/18 06:14:13;;;;;;;10.40;4.10;;;;;;;;;;5097339;28;20410;-63
2023/09/18 06:16:41;;;;;;;8.15;3.63;;;;;;;;;;5097303;28;20417;-63
2023/09/18 06:19:08;;;;;;;10.98;3.90;;;;;;;;;;5096822;28;20406;-63
2023/09/18 06:21:35;;;;;;;8.70;3.83;;;;;;;;;;5101158;28;20477;-63
2023/09/18 06:24:02;;;;;;;11.95;3.60;;;;;;;;;;5100167;28;20892;-63
2023/09/18 06:26:30;;;;;;;10.40;3.57;;;;;;;;;;5113334;27;20425;-63
2023/09/18 06:28:57;;;;;;;9.43;3.85;;;;;;;;;;5107927;27;20406;-63
2023/09/18 06:31:24;;;;;;;12.20;4.03;;;;;;;;;;5095892;28;20406;-63
2023/09/18 06:33:52;;;;;;;10.63;3.45;;;;;;;;;;5101508;28;20973;-63
2023/09/18 06:36:19;;;;;;;6.97;3.67;;;;;;;;;;5095938;28;20406;-62
2023/09/18 06:38:46;;;;;;;8.48;3.33;;;;;;;;;;5098204;28;20411;-63
2023/09/18 06:41:13;;;;;;;8.70;3.30;;;;;;;;;;5098083;28;20422;-63
2023/09/18 06:43:40;;;;;;;13.17;3.50;;;;;;;;;;5097783;28;20419;-64
2023/09/18 06:46:08;;;;;;;10.05;3.60;;;;;;;;;;5095281;28;20459;-63
2023/09/18 06:48:35;;;;;;;8.75;3.40;;;;;;;;;;5101803;28;20881;-64
2023/09/18 06:51:06;;;;;;;8.13;3.05;;;;;;;;;;5093935;28;20413;-63
2023/09/18 06:53:33;;;;;;;10.80;3.47;;;;;;;;;;5098321;28;20412;-63
2023/09/18 06:56:00;;;;;;;8.93;3.33;;;;;;;;;;5115887;27;20455;-63
2023/09/18 06:58:27;;;;;;;7.70;3.20;;;;;;;;;;5116468;27;20406;-62
2023/09/18 07:00:54;;;;;;;7.90;3.20;;;;;;;;;;5099264;27;20430;-63
2023/09/18 07:03:23;;;;;;;7.50;3.10;;;;;;;;;;5106729;27;20406;-66
2023/09/18 07:05:50;;;;;;;7.83;3.00;;;;;;;;;;5096179;28;20796;-68
2023/09/18 07:08:22;;;;;;;9.18;3.13;;;;;;;;;;5097455;28;20418;-64
2023/09/18 07:10:50;;;;;;;6.68;3.22;;;;;;;;;;5101348;28;20412;-65
2023/09/18 07:13:17;;;;;;;6.95;2.90;;;;;;;;;;5101294;28;20859;-65
2023/09/18 07:15:44;;;;;;;7.47;2.90;;;;;;;;;;5106890;28;20410;-66
2023/09/18 07:18:14;;;;;;;8.90;2.77;;;;;;;;;;5100873;28;20410;-65
2023/09/18 07:20:41;;;;;;;5.57;2.55;;;;;;;;;;5099225;28;20942;-65
2023/09/18 07:23:08;;;;;;;6.35;2.60;;;;;;;;;;5109537;27;20417;-63
2023/09/18 07:25:38;;;;;;;6.38;2.88;;;;;;;;;;5111505;27;20410;-64
2023/09/18 07:28:05;;;;;;;7.95;2.92;;;;;;;;;;5101662;27;20456;-64
2023/09/18 07:30:32;;;;;;;5.53;2.50;;;;;;;;;;5094943;28;20400;-64
2023/09/18 07:33:00;;;;;;;7.22;2.75;;;;;;;;;;5094921;28;20418;-64
2023/09/18 07:35:27;;;;;;;5.15;2.53;;;;;;;;;;5097184;28;20410;-63
2023/09/18 07:37:54;;;;;;;5.30;2.50;;;;;;;;;;5095299;28;20440;-63
2023/09/18 07:40:22;;;;;;;6.97;2.40;;;;;;;;;;5096423;28;20425;-62
2023/09/18 07:42:50;;;;;;;7.55;2.60;;;;;;;;;;5095688;28;20414;-64
2023/09/18 07:45:17;;;;;;;5.88;2.55;;;;;;;;;;5094734;28;20428;-63
2023/09/18 07:47:44;;;;;;;6.43;2.35;;;;;;;;;;5096066;28;20402;-65
2023/09/18 07:50:11;;;;;;;5.20;2.30;;;;;;;;;;5099338;28;20496;-65
2023/09/18 07:52:38;;;;;;;5.05;2.05;;;;;;;;;;5095863;28;20486;-63
2023/09/18 07:55:06;;;;;;;7.68;2.40;;;;;;;;;;5101089;27;20886;-64
2023/09/18 07:57:34;;;;;;;6.32;2.50;;;;;;;;;;5115886;27;20922;-65
2023/09/18 08:00:07;;;;;;;6.35;2.30;;;;;;;;;;5097096;28;20410;-65
2023/09/18 08:02:34;;;;;;;5.32;2.20;;;;;;;;;;5094664;28;20406;-64
2023/09/18 08:05:01;;;;;;;7.28;2.08;;;;;;;;;;5099953;28;20408;-65
2023/09/18 08:07:29;;;;;;;5.50;2.03;;;;;;;;;;5105723;27;20438;-63
2023/09/18 08:09:56;;;;;;;5.75;2.40;;;;;;;;;;5122179;27;20417;-64
2023/09/18 08:12:23;;;;;;;5.60;2.17;;;;;;;;;;5108871;27;20873;-64
2023/09/18 08:14:50;;;;;;;5.05;2.30;;;;;;;;;;5096479;28;20408;-64
2023/09/18 08:17:18;;;;;;;4.63;2.10;;;;;;;;;;5095604;28;20497;-64
2023/09/18 08:19:45;;;;;;;6.40;2.10;;;;;;;;;;5096539;28;20411;-64
2023/09/18 08:22:15;;;;;;;7.88;2.20;;;;;;;;;;5099479;28;20452;-65
2023/09/18 08:24:42;;;;;;;6.68;2.10;;;;;;;;;;5103158;28;20434;-67
2023/09/18 08:27:11;;;;;;;5.68;2.00;;;;;;;;;;5114161;28;20902;-65
2023/09/18 08:29:38;;;;;;;4.25;1.85;;;;;;;;;;5102994;28;20412;-64
2023/09/18 08:32:05;;;;;;;3.78;1.70;;;;;;;;;;5092068;28;20407;-63
2023/09/18 08:34:33;;;;;;;7.57;2.30;;;;;;;;;;5104861;28;20412;-64
2023/09/18 08:37:00;;;;;;;8.80;2.40;;;;;;;;;;5094816;28;20463;-63
2023/09/18 08:39:28;;;;;;;5.60;2.13;;;;;;;;;;5101735;28;20484;-63
2023/09/18 08:41:58;;;;;;;5.97;2.40;;;;;;;;;;5093882;28;20425;-64
2023/09/18 08:44:28;;;;;;;5.60;2.20;;;;;;;;;;5096895;28;20410;-64
2023/09/18 08:46:55;;;;;;;7.80;2.40;;;;;;;;;;5093930;28;20409;-64
2023/09/18 08:49:24;;;;;;;5.47;2.10;;;;;;;;;;5097292;28;20412;-64
2023/09/18 08:51:54;;;;;;;4.43;2.00;;;;;;;;;;5091317;28;20410;-64
2023/09/18 08:54:23;;;;;;;6.32;2.20;;;;;;;;;;5096802;28;20471;-64
2023/09/18 08:56:50;;;;;;;5.07;1.80;;;;;;;;;;5109065;27;20440;-64
2023/09/18 08:59:18;;;;;;;5.10;1.90;;;;;;;;;;5097521;28;20414;-64
2023/09/18 09:01:46;;;;;;;6.18;2.00;;;;;;;;;;5094562;28;20424;-64
2023/09/18 09:04:13;;;;;;;5.37;2.13;;;;;;;;;;5093815;28;20410;-64
2023/09/18 09:06:40;;;;;;;6.90;1.92;;;;;;;;;;5098290;28;20461;-64
2023/09/18 09:09:08;;;;;;;4.40;1.90;;;;;;;;;;5103538;28;20465;-66
2023/09/18 09:11:35;;;;;;;5.75;1.80;;;;;;;;;;5115106;27;20403;-64
2023/09/18 09:14:15;;;;;;;4.13;1.73;;;;;;;;;;5110157;27;20408;-64
2023/09/18 09:16:43;;;;;;;5.03;1.88;;;;;;;;;;5109442;28;20405;-64
2023/09/18 09:19:10;;;;;;;4.55;1.70;;;;;;;;;;5099877;28;20816;-64
2023/09/18 09:21:40;;;;;;;5.93;2.00;;;;;;;;;;5101352;28;20485;-64
2023/09/18 09:24:13;;;;;;;7.18;1.90;;;;;;;;;;5100929;28;20405;-64
2023/09/18 09:26:41;;;;;;;4.97;1.77;;;;;;;;;;5121578;27;20460;-64
2023/09/18 09:29:18;;;;;;;4.65;1.83;;;;;;;;;;5109486;27;20751;-64
2023/09/18 09:31:46;;;;;;;5.17;2.00;;;;;;;;;;5099131;28;20491;-64
2023/09/18 09:34:13;;;;;;;4.90;1.70;;;;;;;;;;5099025;28;20452;-64
2023/09/18 09:36:52;;;;;;;6.47;1.60;;;;;;;;;;5099552;28;20936;-64
2023/09/18 09:39:24;;;;;;;6.20;1.67;;;;;;;;;;5095859;28;20497;-64
2023/09/18 09:41:52;;;;;;;5.15;1.80;;;;;;;;;;5098893;28;20420;-65
2023/09/18 09:44:20;;;;;;;3.28;1.40;;;;;;;;;;5094799;28;20451;-65
2023/09/18 09:46:48;;;;;;;5.72;1.73;;;;;;;;;;5101038;28;20413;-65
2023/09/18 09:49:16;;;;;;;3.53;1.70;;;;;;;;;;5098542;28;20414;-66
2023/09/18 09:51:44;;;;;;;3.33;1.80;;;;;;;;;;5099312;28;20426;-65
2023/09/18 09:54:12;;;;;;;6.40;1.88;;;;;;;;;;5093690;28;20913;-65
2023/09/18 09:56:44;;;;;;;4.93;1.63;;;;;;;;;;5115695;27;20778;-65
2023/09/18 09:59:12;;;;;;;5.55;1.70;;;;;;;;;;5099356;28;20418;-65
2023/09/18 10:01:40;;;;;;;4.43;1.50;;;;;;;;;;5101610;28;20432;-64
2023/09/18 10:04:10;;;;;;;4.40;1.47;;;;;;;;;;5095855;28;20519;-65
2023/09/18 10:06:37;;;;;;;3.63;1.48;;;;;;;;;;5100050;28;20414;-66
2023/09/18 10:09:05;;;;;;;5.30;1.70;;;;;;;;;;5096682;28;20408;-64
2023/09/18 10:11:33;;;;;;;4.40;1.85;;;;;;;;;;5099123;28;20406;-65
2023/09/18 10:14:03;;;;;;;2.83;1.52;;;;;;;;;;5098610;28;20400;-64
2023/09/18 10:16:32;;;;;;;3.45;1.60;;;;;;;;;;5098007;28;20410;-64
2023/09/18 10:19:04;;;;;;;4.28;1.50;;;;;;;;;;5096268;28;20469;-66
2023/09/18 10:21:35;;;;;;;3.53;1.55;;;;;;;;;;5097819;28;20433;-66
2023/09/18 10:24:06;;;;;;;6.07;1.45;;;;;;;;;;5095645;28;20833;-65
2023/09/18 10:26:38;;;;;;;4.70;1.55;;;;;;;;;;5115493;27;20411;-65
2023/09/18 10:29:08;;;;;;;4.18;1.77;;;;;;;;;;5101079;28;20417;-64
2023/09/18 10:31:36;;;;;;;3.95;1.55;;;;;;;;;;5096633;28;20397;-67
2023/09/18 10:34:04;;;;;;;2.20;1.23;;;;;;;;;;5095947;28;20834;-65
2023/09/18 10:36:31;;;;;;;4.90;1.58;;;;;;;;;;5096170;28;20467;-65
2023/09/18 10:39:00;;;;;;;2.97;1.50;;;;;;;;;;5099485;28;20404;-64
2023/09/18 10:41:27;;;;;;;3.75;1.20;;;;;;;;;;5096076;28;20499;-64
2023/09/18 10:43:57;;;;;;;4.57;1.67;;;;;;;;;;5107150;27;20413;-65
2023/09/18 10:46:25;;;;;;;3.83;1.50;;;;;;;;;;5110767;27;20429;-64
2023/09/18 10:48:53;;;;;;;4.05;1.40;;;;;;;;;;5105305;28;20897;-64
2023/09/18 10:51:21;;;;;;;3.45;1.45;;;;;;;;;;5093917;28;20810;-66
2023/09/18 10:53:49;;;;;;;2.40;1.52;;;;;;;;;;5097469;28;20841;-66
2023/09/18 10:56:16;;;;;;;3.53;1.60;;;;;;;;;;5108345;27;20410;-64
2023/09/18 10:58:44;;;;;;;4.85;1.50;;;;;;;;;;5104376;28;20408;-65
2023/09/18 11:01:13;;;;;;;4.72;1.88;;;;;;;;;;5102948;28;20437;-65
2023/09/18 11:03:41;;;;;;;5.00;1.70;;;;;;;;;;5109075;28;20465;-66
2023/09/18 11:06:10;;;;;;;3.85;1.48;;;;;;;;;;5092914;28;20498;-65
2023/09/18 11:08:45;;;;;;;6.15;1.50;;;;;;;;;;5099367;28;20899;-65
2023/09/18 11:11:14;;;;;;;3.60;1.25;;;;;;;;;;5096610;28;20438;-65
2023/09/18 11:13:42;;;;;;;4.72;1.70;;;;;;;;;;5103773;28;20448;-65
2023/09/18 11:16:16;;;;;;;3.67;1.50;;;;;;;;;;5092349;28;20884;-65
2023/09/18 11:18:47;;;;;;;4.38;1.52;;;;;;;;;;5105043;28;20475;-66
2023/09/18 11:21:17;;;;;;;5.03;1.60;;;;;;;;;;5092605;28;20414;-67
2023/09/18 11:23:44;;;;;;;4.47;1.80;;;;;;;;;;5098383;28;20408;-65
2023/09/18 11:26:12;;;;;;;2.97;1.30;;;;;;;;;;5109964;27;20454;-65
2023/09/18 11:28:39;;;;;;;3.28;1.60;;;;;;;;;;5104633;27;20417;-65
2023/09/18 11:31:07;;;;;;;6.57;1.23;;;;;;;;;;5095500;28;20461;-65
2023/09/18 11:33:35;;;;;;;5.50;1.70;;;;;;;;;;5097269;28;20405;-65
2023/09/18 11:36:06;;;;;;;3.15;1.70;;;;;;;;;;5101277;28;20453;-64
2023/09/18 11:38:35;;;;;;;3.40;1.50;;;;;;;;;;5097077;28;20485;-65
2023/09/18 11:41:03;;;;;;;5.13;1.80;;;;;;;;;;5108666;28;20434;-65
2023/09/18 11:43:30;;;;;;;3.20;1.37;;;;;;;;;;5095377;28;20437;-65
2023/09/18 11:45:58;;;;;;;3.67;1.90;;;;;;;;;;5096585;28;20404;-65
2023/09/18 11:48:28;;;;;;;3.20;1.60;;;;;;;;;;5096433;28;20414;-66
2023/09/18 11:50:57;;;;;;;12.50;3.28;;;;;;;;;;5106650;28;20491;-65
2023/09/18 11:53:26;;;;;;;4.18;1.58;;;;;;;;;;5098781;28;20883;-67
2023/09/18 11:55:53;;;;;;;16.33;3.15;;;;;;;;;;5105730;27;20404;-65
2023/09/18 11:58:23;;;;;;;4.50;1.38;;;;;;;;;;5101845;27;20418;-65
2023/09/18 12:00:50;;;;;;;4.68;1.70;;;;;;;;;;5101464;28;20408;-63
2023/09/18 12:03:24;;;;;;;4.43;1.63;;;;;;;;;;5093349;28;20803;-64
2023/09/18 12:05:52;;;;;;;5.50;1.70;;;;;;;;;;5099870;28;20445;-64
2023/09/18 12:08:19;;;;;;;2.70;1.30;;;;;;;;;;5092696;28;20467;-64
2023/09/18 12:10:50;;;;;;;4.05;1.45;;;;;;;;;;5097126;28;20416;-64
2023/09/18 12:13:18;;;;;;;6.25;1.60;;;;;;;;;;5095724;28;20741;-66
2023/09/18 12:15:45;;;;;;;4.72;1.63;;;;;;;;;;5099853;28;20465;-69
2023/09/18 12:18:13;;;;;;;4.22;1.65;;;;;;;;;;5095853;28;20410;-65
2023/09/18 12:20:46;;;;;;;6.00;1.77;;;;;;;;;;5102785;28;20784;-65
2023/09/18 12:23:13;;;;;;;3.85;1.77;;;;;;;;;;5091335;28;20482;-64
2023/09/18 12:25:40;;;;;;;5.95;1.70;;;;;;;;;;5110335;28;20408;-65
2023/09/18 12:28:09;;;;;;;3.33;1.70;;;;;;;;;;5094568;28;20455;-65
2023/09/18 12:30:36;;;;;;;3.58;1.30;;;;;;;;;;5106278;28;20572;-65
2023/09/18 12:33:04;;;;;;;4.30;1.75;;;;;;;;;;5094629;28;20427;-65
2023/09/18 12:35:32;;;;;;;3.25;1.60;;;;;;;;;;5096776;28;20445;-65
2023/09/18 12:38:00;;;;;;;3.03;1.67;;;;;;;;;;5095857;28;20423;-66
2023/09/18 12:40:27;;;;;;;3.53;1.70;;;;;;;;;;5098726;28;20445;-66
2023/09/18 12:42:55;;;;;;;3.97;1.80;;;;;;;;;;5094598;28;20424;-63
2023/09/18 12:45:24;;;;;;;3.17;1.65;;;;;;;;;;5094638;28;20417;-61
2023/09/18 12:47:52;;;;;;;5.40;1.70;;;;;;;;;;5094687;28;20513;-63
2023/09/18 12:50:19;;;;;;;5.32;1.60;;;;;;;;;;5097771;28;20500;-63
2023/09/18 12:52:46;;;;;;;3.33;1.85;;;;;;;;;;5094895;28;20408;-63
2023/09/18 12:55:23;;;;;;;4.97;1.60;;;;;;;;;;5102916;28;20456;-63
2023/09/18 12:57:50;;;;;;;4.93;1.90;;;;;;;;;;5098340;28;20457;-63
2023/09/18 13:00:19;;;;;;;5.75;2.83;;;;;;;;;;5096224;28;20458;-63
2023/09/18 13:02:48;;;;;;;3.40;1.97;;;;;;;;;;5100636;28;20487;-64
2023/09/18 13:05:20;;;;;;;2.42;1.60;;;;;;;;;;5101215;28;20413;-64
2023/09/18 13:07:48;;;;;;;5.33;1.73;;;;;;;;;;5106308;28;20913;-64
2023/09/18 13:10:15;;;;;;;4.50;1.95;;;;;;;;;;5114412;28;20404;-64
2023/09/18 13:12:43;;;;;;;4.75;1.70;;;;;;;;;;5104927;28;20433;-64
2023/09/18 13:15:12;;;;;;;4.25;1.80;;;;;;;;;;5102060;28;20400;-64
2023/09/18 13:17:44;;;;;;;3.00;1.60;;;;;;;;;;5110109;28;20879;-64
2023/09/18 13:20:13;;;;;;;3.05;1.60;;;;;;;;;;5100856;28;20413;-64
2023/09/18 13:22:41;;;;;;;4.03;1.73;;;;;;;;;;5110760;28;20424;-64
2023/09/18 13:25:09;;;;;;;4.97;1.60;;;;;;;;;;5108286;27;20497;-64
2023/09/18 13:27:36;;;;;;;5.20;1.80;;;;;;;;;;5114191;27;20414;-64
2023/09/18 13:30:06;;;;;;;4.82;1.58;;;;;;;;;;5096020;28;20914;-64
2023/09/18 13:32:33;;;;;;;3.60;1.98;;;;;;;;;;5098505;28;20421;-64
2023/09/18 13:35:00;;;;;;;3.70;1.63;;;;;;;;;;5095981;28;20465;-64
2023/09/18 13:37:29;;;;;;;2.67;1.47;;;;;;;;;;5097375;28;20847;-65
2023/09/18 13:39:56;;;;;;;4.30;1.73;;;;;;;;;;5096595;28;20410;-64
2023/09/18 13:42:23;;;;;;;3.17;1.67;;;;;;;;;;5100537;28;20479;-64
2023/09/18 13:44:50;;;;;;;3.33;1.50;;;;;;;;;;5095447;28;20414;-65
2023/09/18 13:47:17;;;;;;;3.80;1.60;;;;;;;;;;5099896;28;20851;-65
2023/09/18 13:49:46;;;;;;;3.72;1.40;;;;;;;;;;5096119;28;20409;-65
2023/09/18 13:52:13;;;;;;;3.40;1.60;;;;;;;;;;5108548;27;20408;-64
2023/09/18 13:54:41;;;;;;;3.30;1.58;;;;;;;;;;5112320;27;20421;-67
2023/09/18 13:57:08;;;;;;;3.63;1.55;;;;;;;;;;5112792;27;20412;-67
2023/09/18 13:59:35;;;;;;;3.35;1.60;;;;;;;;;;5101867;28;20826;-66
2023/09/18 14:02:03;;;;;;;3.45;1.60;;;;;;;;;;5099574;28;20884;-67
2023/09/18 14:04:30;;;;;;;3.72;1.70;;;;;;;;;;5094321;28;20426;-65
2023/09/18 14:06:58;;;;;;;4.20;1.58;;;;;;;;;;5101481;28;20481;-68
2023/09/18 14:09:25;;;;;;;3.42;1.90;;;;;;;;;;5096608;28;20786;-69
2023/09/18 14:11:54;;;;;;;4.13;2.22;;;;;;;;;;5096978;28;20448;-68
2023/09/18 14:14:21;;;;;;;3.67;1.70;;;;;;;;;;5097368;28;20901;-66
2023/09/18 14:16:50;;;;;;;3.72;1.58;;;;;;;;;;5095726;28;20876;-68
2023/09/18 14:19:17;;;;;;;3.87;1.67;;;;;;;;;;5103732;28;20416;-67
2023/09/18 14:21:44;;;;;;;2.80;1.60;;;;;;;;;;5096480;28;20431;-69
2023/09/18 14:24:11;;;;;;;3.30;1.60;;;;;;;;;;5093473;28;20935;-69
2023/09/18 14:26:41;;;;;;;4.20;1.90;;;;;;;;;;5108445;27;20413;-70
2023/09/18 14:29:10;;;;;;;4.70;1.67;;;;;;;;;;5100115;28;20763;-70
2023/09/18 14:31:38;;;;;;;3.50;1.40;;;;;;;;;;5104454;28;20421;-69
2023/09/18 14:34:06;;;;;;;3.33;1.50;;;;;;;;;;5103692;28;20400;-69
2023/09/18 14:36:33;;;;;;;3.45;1.40;;;;;;;;;;5107560;28;20836;-67
2023/09/18 14:39:01;;;;;;;3.13;1.38;;;;;;;;;;5095875;28;20487;-66
2023/09/18 14:41:28;;;;;;;2.95;1.50;;;;;;;;;;5096645;28;20654;-66
2023/09/18 14:43:57;;;;;;;2.63;1.50;;;;;;;;;;5097019;28;20443;-67